地図

経路データ

SID SEASON NUMBER BASIN SUBBASIN NAME ISO_TIME NATURE LAT LON WMO_WIND WMO_PRES WMO_AGENCY TRACK_TYPE DIST2LAND LANDFALL IFLAG USA_AGENCY USA_ATCF_ID USA_LAT USA_LON USA_RECORD USA_STATUS USA_WIND USA_PRES USA_SSHS USA_R34_NE USA_R34_SE USA_R34_SW USA_R34_NW USA_R50_NE USA_R50_SE USA_R50_SW USA_R50_NW USA_R64_NE USA_R64_SE USA_R64_SW USA_R64_NW USA_POCI USA_ROCI USA_RMW USA_EYE TOKYO_LAT TOKYO_LON TOKYO_GRADE TOKYO_WIND TOKYO_PRES TOKYO_R50_DIR TOKYO_R50_LONG TOKYO_R50_SHORT TOKYO_R30_DIR TOKYO_R30_LONG TOKYO_R30_SHORT TOKYO_LAND CMA_LAT CMA_LON CMA_CAT CMA_WIND CMA_PRES HKO_LAT HKO_LON HKO_CAT HKO_WIND HKO_PRES NEWDELHI_LAT NEWDELHI_LON NEWDELHI_GRADE NEWDELHI_WIND NEWDELHI_PRES NEWDELHI_CI NEWDELHI_DP NEWDELHI_POCI REUNION_LAT REUNION_LON REUNION_TYPE REUNION_WIND REUNION_PRES REUNION_TNUM REUNION_CI REUNION_RMW REUNION_R34_NE REUNION_R34_SE REUNION_R34_SW REUNION_R34_NW REUNION_R50_NE REUNION_R50_SE REUNION_R50_SW REUNION_R50_NW REUNION_R64_NE REUNION_R64_SE REUNION_R64_SW REUNION_R64_NW BOM_LAT BOM_LON BOM_TYPE BOM_WIND BOM_PRES BOM_TNUM BOM_CI BOM_RMW BOM_R34_NE BOM_R34_SE BOM_R34_SW BOM_R34_NW BOM_R50_NE BOM_R50_SE BOM_R50_SW BOM_R50_NW BOM_R64_NE BOM_R64_SE BOM_R64_SW BOM_R64_NW BOM_ROCI BOM_POCI BOM_EYE BOM_POS_METHOD BOM_PRES_METHOD NADI_LAT NADI_LON NADI_CAT NADI_WIND NADI_PRES WELLINGTON_LAT WELLINGTON_LON WELLINGTON_WIND WELLINGTON_PRES DS824_LAT DS824_LON DS824_STAGE DS824_WIND DS824_PRES TD9636_LAT TD9636_LON TD9636_STAGE TD9636_WIND TD9636_PRES TD9635_LAT TD9635_LON TD9635_WIND TD9635_PRES TD9635_ROCI NEUMANN_LAT NEUMANN_LON NEUMANN_CLASS NEUMANN_WIND NEUMANN_PRES MLC_LAT MLC_LON MLC_CLASS MLC_WIND MLC_PRES USA_GUST BOM_GUST BOM_GUST_PER REUNION_GUST REUNION_GUST_PER USA_SEAHGT USA_SEARAD_NE USA_SEARAD_SE USA_SEARAD_SW USA_SEARAD_NW STORM_SPEED STORM_DIR
1983237N25128 1983 51 WP MM NOT_NAMED 1983-08-25 06:00:00 NR 25.3333 128.167 main 624 624 O__O______O___ jtwc_wp WP091983 25.5000 128.100 20 -1 25.0000 128.300 TD 25 1000 25.5000 128.100 0 20 6 73
1983237N25128 1983 51 WP MM NOT_NAMED 1983-08-25 09:00:00 NR 25.4176 128.477 main 654 633 P__P______P___ WP091983 25.4604 128.542 20 -1 25.2975 128.405 TD 25 1000 25.4949 128.484 0 20 6 61
1983237N25128 1983 51 WP MM NOT_NAMED 1983-08-25 12:00:00 NR 25.6000 128.700 main 633 598 O__O______O___ jtwc_wp WP091983 25.6000 128.800 20 -1 25.6000 128.500 TD 25 1000 25.6000 128.800 1 20 6 28
1983237N25128 1983 51 WP MM NOT_NAMED 1983-08-25 15:00:00 NR 25.9506 128.786 main 588 545 P__P______P___ WP091983 26.0324 128.773 20 -1 25.9200 128.585 TD 25 1000 25.8994 128.999 1 21 8 8
1983237N25128 1983 51 WP MM NOT_NAMED 1983-08-25 18:00:00 NR 26.4226 128.832 main 545 486 O__O______P___ jtwc_wp WP091983 26.6000 128.700 20 -1 26.3000 128.700 TD 25 1000 26.3679 129.096 1 22 10 10
1983237N25128 1983 51 WP MM NOT_NAMED 1983-08-25 21:00:00 NR 26.9234 128.970 main 486 420 P__P______P___ WP091983 27.0701 128.884 22 -1 26.7476 128.907 TD 25 1000 26.9524 129.120 1 23 11 13
1983237N25128 1983 51 WP MM NOT_NAMED 1983-08-26 00:00:00 NR 27.5000 129.100 main 420 354 O__O______O___ jtwc_wp WP091983 27.6000 129.100 25 -1 27.3000 129.100 TD 25 1000 27.6000 129.100 1 25 12 9
1983237N25128 1983 51 WP MM NOT_NAMED 1983-08-26 03:00:00 NR 28.1482 129.185 main 354 284 P__P______P___ WP091983 28.2774 129.202 25 -1 27.9549 129.217 TD 25 999 28.2122 129.137 1 25 14 3
1983237N25128 1983 51 WP MM NOT_NAMED 1983-08-26 06:00:00 NR 28.8582 129.177 main 274 217 O__O______P___ jtwc_wp WP091983 29.0000 129.200 25 -1 28.7000 129.200 TD 25 998 28.8745 129.131 1 25 14 356
1983237N25128 1983 51 WP MM NOT_NAMED 1983-08-26 09:00:00 NR 29.5698 129.058 main 207 166 P__P______P___ WP091983 29.6425 129.095 25 -1 29.4924 129.018 TD 25 998 29.5745 129.061 1 25 15 348
1983237N25128 1983 51 WP MM NOT_NAMED 1983-08-26 12:00:00 NR 30.3000 128.833 main 167 149 O__O______O___ jtwc_wp WP091983 30.3000 128.900 25 -1 30.3000 128.700 TD 25 998 30.3000 128.900 1 25 15 343
1983237N25128 1983 51 WP MM NOT_NAMED 1983-08-26 15:00:00 NR 31.0416 128.547 main 163 161 P__P______P___ WP091983 31.0347 128.702 25 -1 31.0502 128.308 TD 25 998 31.0400 128.633 1 26 16 340
1983237N25128 1983 51 WP MM NOT_NAMED 1983-08-26 18:00:00 NR 31.7971 128.184 main 166 129 O__O______P___ jtwc_wp WP091983 31.8000 128.400 25 -1 31.8000 127.900 TD 25 998 31.7892 128.276 1 27 17 336
1983237N25128 1983 51 WP MM NOT_NAMED 1983-08-26 21:00:00 NR 32.5660 127.757 main 121 51 P__P______P___ WP091983 32.5430 127.901 27 -1 32.5999 127.562 TD 25 998 32.5439 127.856 1 28 17 336
1983237N25128 1983 51 WP MM NOT_NAMED 1983-08-27 00:00:00 NR 33.3500 127.350 main 47 29 O__O______O___ jtwc_wp WP091983 33.3000 127.400 30 -1 33.4000 127.300 TD 25 998 33.3000 127.400 1 30 17 341
1983237N25128 1983 51 WP MM NOT_NAMED 1983-08-27 03:00:00 NR 34.1648 127.099 main 28 0 P__P__________ WP091983 34.0896 127.087 27 -1 34.2024 127.105 TD 25 998 1 16 349
1983237N25128 1983 51 WP MM NOT_NAMED 1983-08-27 06:00:00 NR 34.9000 126.980 main 0 0 O__O__________ jtwc_wp WP091983 34.9000 126.900 25 -1 34.9000 127.000 TD 25 998 1 13 356
1983237N25128 1983 51 WP MM NOT_NAMED 1983-08-27 09:00:00 NR 35.4099 126.977 main 0 0 ___P__________ WP091983 -1 35.4099 126.977 TD 25 998 1 9 0
1983237N25128 1983 51 WP MM NOT_NAMED 1983-08-27 12:00:00 NR 35.8000 127.000 main 0 0 ___O__________ -1 35.8000 127.000 TD 25 999 7 2
1983237N25128 1983 51 WP MM NOT_NAMED 1983-08-27 15:00:00 NR 36.1550 127.008 main 0 0 ___P__________ -1 36.1550 127.008 TD 25 999 7 0
1983237N25128 1983 51 WP MM NOT_NAMED 1983-08-27 18:00:00 NR 36.5000 127.000 main 0 ___O__________ -1 36.5000 127.000 TD 25 1000 7 0

デジタル台風データ・検索

IBTrACS Databaseについて

本データベースは、米国NOAAが公開する1842年以降の世界の熱帯低気圧のベストトラックデータアーカイブInternational Best Track Archive for Climate Stewardship (IBTrACS)を、ウェブで閲覧しやすい形式に変換したものです。

最終更新日:2021-11-26